Time;durP1;ratioP1;P1;durP2;ratioP2;P2;SDS_P1;SDS_P2;PMS_P1;PMS_P2;Temp;Humidity;BMP_temperature;BMP_pressure;BME280_temperature;BME280_humidity;BME280_pressure;Samples;Min_cycle;Max_cycle;Signal;HPM_P1;HPM_P2
2022/11/05 02:28:46;;;;;;;2.22;1.25;;;22.20;61.60;;;;;;3917564;27;20100;-47
2022/11/05 02:31:24;;;;;;;4.15;1.45;;;22.30;61.40;;;;;;4039220;29;20463;-44
2022/11/05 02:33:46;;;;;;;4.00;0.82;;;22.30;61.20;;;;;;4040047;29;20099;-45
2022/11/05 02:36:15;;;;;;;5.57;1.17;;;22.30;60.70;;;;;;4045728;29;20079;-45
2022/11/05 02:38:43;;;;;;;8.75;0.80;;;22.30;60.40;;;;;;4042251;29;20062;-44
2022/11/05 02:41:09;;;;;;;2.55;0.90;;;22.30;60.30;;;;;;4045701;29;20415;-44
2022/11/05 02:43:53;;;;;;;2.30;0.82;;;22.30;60.00;;;;;;4045597;29;20052;-46
2022/11/05 02:46:49;;;;;;;0.98;0.57;;;22.30;59.80;;;;;;4050975;29;20472;-46
2022/11/05 02:49:26;;;;;;;2.63;0.75;;;22.30;59.70;;;;;;4050118;29;20228;-45
2022/11/05 02:52:02;;;;;;;1.73;0.73;;;22.30;59.40;;;;;;4050069;29;20150;-44
2022/11/05 02:54:36;;;;;;;2.55;0.73;;;22.30;59.30;;;;;;4048391;29;20055;-43
2022/11/05 02:57:00;;;;;;;1.90;0.52;;;22.30;59.10;;;;;;4048278;29;20262;-44
2022/11/05 02:59:22;;;;;;;3.05;0.80;;;22.40;59.00;;;;;;4050296;29;20040;-43
2022/11/05 03:01:46;;;;;;;2.65;0.70;;;22.40;59.00;;;;;;4045018;29;20472;-44
2022/11/05 03:04:12;;;;;;;2.60;0.80;;;22.40;58.80;;;;;;4050895;29;20131;-43
2022/11/05 03:06:38;;;;;;;1.25;0.52;;;22.40;58.50;;;;;;4051642;29;20120;-44
2022/11/05 03:09:23;;;;;;;1.58;0.60;;;22.40;58.20;;;;;;4048033;29;20444;-44
2022/11/05 03:12:04;;;;;;;0.98;0.50;;;22.40;58.60;;;;;;4014101;29;20040;-44
2022/11/05 03:14:42;;;;;;;1.17;0.50;;;22.50;58.40;;;;;;4049388;29;20159;-44
2022/11/05 03:17:16;;;;;;;0.77;0.50;;;22.50;58.30;;;;;;4051372;29;20663;-44
2022/11/05 03:19:46;;;;;;;0.75;0.40;;;22.50;58.00;;;;;;4053524;29;20044;-44
2022/11/05 03:22:24;;;;;;;0.57;0.50;;;22.50;58.10;;;;;;4053451;29;20071;-43
2022/11/05 03:24:52;;;;;;;1.63;0.50;;;22.50;58.10;;;;;;4052026;29;20048;-44
2022/11/05 03:27:22;;;;;;;0.93;0.30;;;22.60;57.90;;;;;;4053812;28;20476;-44
2022/11/05 03:29:51;;;;;;;0.40;0.40;;;22.60;58.10;;;;;;4047707;29;20071;-43
2022/11/05 03:32:15;;;;;;;1.52;0.52;;;22.60;57.70;;;;;;4052515;29;20075;-43
2022/11/05 03:34:46;;;;;;;1.67;0.55;;;22.60;57.70;;;;;;4047180;29;20040;-44
2022/11/05 03:37:10;;;;;;;0.90;0.47;;;22.60;57.60;;;;;;4052458;29;20399;-43
2022/11/05 03:39:41;;;;;;;1.58;0.40;;;22.70;57.60;;;;;;4051166;29;20036;-45
2022/11/05 03:42:06;;;;;;;1.48;0.57;;;22.70;57.60;;;;;;4052425;29;20070;-47
2022/11/05 03:44:33;;;;;;;1.55;0.60;;;22.70;57.60;;;;;;4051288;29;20048;-43
2022/11/05 03:47:08;;;;;;;2.13;0.80;;;22.80;57.20;;;;;;4046990;29;20139;-44
2022/11/05 03:49:34;;;;;;;;;;;22.80;57.00;;;;;;4053669;29;20051;-45
2022/11/05 03:52:10;;;;;;;1.00;0.60;;;22.80;56.90;;;;;;4051594;28;20360;-44
2022/11/05 03:54:34;;;;;;;0.90;0.50;;;22.90;57.20;;;;;;4049118;29;20043;-43
2022/11/05 03:57:05;;;;;;;1.02;0.40;;;23.00;56.80;;;;;;4049216;29;20051;-44
2022/11/05 03:59:29;;;;;;;1.05;0.32;;;23.00;56.90;;;;;;4048181;29;20510;-46
2022/11/05 04:01:53;;;;;;;1.10;0.52;;;23.10;56.60;;;;;;4047520;29;20487;-44
2022/11/05 04:04:16;;;;;;;0.75;0.40;;;23.10;56.90;;;;;;4052272;29;20040;-43
2022/11/05 04:14:40;;;;;;;0.88;0.52;;;23.30;56.30;;;;;;4048437;29;20127;-44
2022/11/05 04:17:05;;;;;;;0.77;0.30;;;23.30;55.80;;;;;;4053581;29;20764;-45
2022/11/05 04:24:49;;;;;;;0.65;0.60;;;23.40;55.70;;;;;;4050633;29;20130;-44
2022/11/05 04:27:11;;;;;;;0.80;0.50;;;23.40;55.80;;;;;;4052528;29;20044;-45
2022/11/05 04:32:14;;;;;;;0.65;0.52;;;23.40;55.70;;;;;;4055299;29;20044;-44
2022/11/05 04:34:37;;;;;;;1.13;0.40;;;23.50;55.90;;;;;;4051412;29;20119;-45
2022/11/05 04:36:59;;;;;;;1.42;0.75;;;23.50;56.30;;;;;;4046596;29;20135;-44
2022/11/05 04:39:22;;;;;;;1.45;0.52;;;23.50;55.90;;;;;;4048687;29;20043;-44
2022/11/05 04:41:48;;;;;;;0.77;0.50;;;23.60;55.80;;;;;;4052305;29;20071;-44
2022/11/05 04:44:11;;;;;;;1.15;0.50;;;23.60;55.70;;;;;;4046373;29;20040;-45
2022/11/05 04:46:33;;;;;;;0.80;0.43;;;23.60;55.50;;;;;;4049572;29;20040;-44
2022/11/05 04:48:56;;;;;;;1.17;0.60;;;23.70;55.40;;;;;;4053256;29;20032;-45
2022/11/05 04:51:18;;;;;;;0.50;0.40;;;23.80;55.40;;;;;;4052293;29;20073;-45
2022/11/05 04:53:41;;;;;;;1.13;0.35;;;23.90;54.90;;;;;;4051152;29;20801;-45
2022/11/05 04:56:18;;;;;;;0.82;0.50;;;24.00;54.80;;;;;;4052575;29;20044;-44
2022/11/05 04:58:41;;;;;;;0.90;0.45;;;24.00;54.80;;;;;;4049248;29;20040;-44
2022/11/05 05:01:04;;;;;;;0.45;0.40;;;24.10;54.60;;;;;;4050472;29;20134;-45
2022/11/05 05:03:26;;;;;;;1.35;0.60;;;24.20;54.50;;;;;;4053054;29;20170;-44
2022/11/05 05:05:49;;;;;;;1.23;0.47;;;24.20;54.30;;;;;;4047643;29;20048;-45
2022/11/05 05:08:11;;;;;;;0.65;0.40;;;24.30;54.10;;;;;;4051683;29;20067;-43
2022/11/05 05:10:34;;;;;;;1.42;0.70;;;24.40;53.90;;;;;;4053907;29;20044;-44
2022/11/05 05:12:56;;;;;;;0.85;0.47;;;24.50;53.80;;;;;;4054820;29;20038;-44
2022/11/05 05:15:19;;;;;;;0.30;0.30;;;24.60;53.90;;;;;;4062413;29;20040;-45
2022/11/05 05:17:42;;;;;;;1.35;0.50;;;24.70;53.90;;;;;;4062638;29;20047;-44
2022/11/05 05:22:52;;;;;;;0.70;0.40;;;24.80;53.30;;;;;;4058525;29;20039;-44
2022/11/05 05:25:14;;;;;;;1.90;0.50;;;25.00;53.30;;;;;;4056230;29;20079;-44
2022/11/05 05:27:37;;;;;;;0.88;0.60;;;25.10;53.20;;;;;;4045427;29;20085;-44
2022/11/05 05:30:00;;;;;;;1.00;0.50;;;25.10;52.90;;;;;;4052241;29;20044;-44
2022/11/05 05:32:23;;;;;;;1.27;0.57;;;25.20;53.20;;;;;;4054196;29;20074;-45
2022/11/05 05:34:45;;;;;;;1.48;0.63;;;25.30;52.70;;;;;;4048802;29;20504;-46
2022/11/05 05:37:08;;;;;;;1.05;0.50;;;25.40;52.90;;;;;;4045376;29;20641;-44
2022/11/05 05:39:31;;;;;;;0.52;0.40;;;25.50;52.60;;;;;;4044747;29;20067;-43
2022/11/05 05:41:54;;;;;;;1.08;0.60;;;25.50;52.40;;;;;;4044304;29;20043;-48
2022/11/05 05:44:16;;;;;;;0.40;0.40;;;25.60;52.20;;;;;;4043815;29;20475;-44
2022/11/05 05:46:39;;;;;;;1.25;0.40;;;25.70;52.10;;;;;;4046081;29;20045;-44
2022/11/05 05:49:01;;;;;;;0.52;0.40;;;25.80;52.00;;;;;;4047533;29;20048;-46
2022/11/05 05:51:24;;;;;;;1.42;0.65;;;25.80;52.20;;;;;;4042293;29;20044;-47
2022/11/05 05:53:46;;;;;;;0.60;0.45;;;25.90;52.10;;;;;;4043738;29;20044;-45
2022/11/05 05:56:09;;;;;;;1.77;0.50;;;25.90;51.70;;;;;;4041790;29;20499;-46
2022/11/05 05:58:35;;;;;;;2.20;0.60;;;26.00;52.70;;;;;;4044959;29;20051;-44
2022/11/05 06:01:01;;;;;;;1.45;0.60;;;26.10;51.50;;;;;;4040340;29;20441;-44
2022/11/05 06:03:23;;;;;;;0.95;0.55;;;26.10;51.70;;;;;;4046670;29;20051;-44
2022/11/05 06:05:47;;;;;;;0.85;0.47;;;26.20;51.30;;;;;;4046973;29;20103;-46
2022/11/05 06:08:09;;;;;;;1.85;0.57;;;26.20;51.30;;;;;;4044916;29;20401;-46
2022/11/05 06:10:32;;;;;;;1.85;0.73;;;26.20;51.20;;;;;;4041882;29;20103;-45
2022/11/05 06:12:55;;;;;;;1.40;0.50;;;26.30;51.60;;;;;;4042815;29;20115;-45
2022/11/05 06:15:17;;;;;;;1.45;0.57;;;26.40;51.50;;;;;;4043640;29;20485;-46
2022/11/05 06:17:42;;;;;;;0.55;0.45;;;26.40;51.30;;;;;;4040654;29;20111;-44
2022/11/05 06:20:05;;;;;;;1.33;0.45;;;26.40;51.40;;;;;;4048257;29;20048;-44
2022/11/05 06:22:27;;;;;;;0.85;0.40;;;26.40;51.30;;;;;;4049754;29;20044;-45
2022/11/05 06:24:50;;;;;;;1.02;0.52;;;26.50;51.30;;;;;;4039210;29;20066;-45
2022/11/05 06:27:12;;;;;;;0.85;0.40;;;26.50;51.60;;;;;;4041984;29;20055;-45
2022/11/05 06:29:35;;;;;;;0.30;0.30;;;26.60;51.40;;;;;;4045192;29;20091;-45
2022/11/05 06:31:57;;;;;;;0.47;0.47;;;26.60;51.10;;;;;;4053044;29;20085;-45
2022/11/05 06:34:20;;;;;;;0.80;0.60;;;26.60;51.00;;;;;;4050776;29;20520;-45
2022/11/05 06:36:42;;;;;;;0.85;0.63;;;26.60;51.20;;;;;;4048741;29;20153;-44
2022/11/05 06:39:08;;;;;;;2.70;0.80;;;26.60;51.30;;;;;;4054508;29;20036;-44
2022/11/05 06:41:31;;;;;;;0.70;0.60;;;26.60;51.60;;;;;;4056038;29;20575;-44
2022/11/05 06:43:54;;;;;;;2.08;0.60;;;26.60;51.10;;;;;;4053817;29;20095;-44
2022/11/05 06:46:16;;;;;;;0.90;0.80;;;26.50;51.50;;;;;;4054475;29;20419;-49
2022/11/05 06:48:39;;;;;;;0.95;0.50;;;26.50;51.40;;;;;;4052833;29;20359;-45
2022/11/05 06:51:03;;;;;;;1.30;0.85;;;26.50;51.40;;;;;;4057404;29;20044;-44
2022/11/05 06:53:25;;;;;;;1.45;0.50;;;26.40;51.40;;;;;;4054820;29;20460;-44
2022/11/05 06:55:48;;;;;;;1.48;0.60;;;26.40;51.20;;;;;;4049581;29;20515;-46
2022/11/05 06:58:11;;;;;;;1.00;0.70;;;26.40;51.40;;;;;;4049394;29;20055;-44
2022/11/05 07:00:33;;;;;;;1.77;0.73;;;26.30;51.40;;;;;;4044660;29;20036;-44
2022/11/05 07:03:02;;;;;;;1.15;0.70;;;26.30;51.40;;;;;;4046251;29;20071;-45
2022/11/05 07:05:26;;;;;;;1.05;0.60;;;26.20;51.40;;;;;;4053595;29;20044;-45
2022/11/05 07:07:48;;;;;;;1.35;0.70;;;26.20;51.70;;;;;;4052983;29;20048;-45
2022/11/05 07:10:17;;;;;;;1.63;0.80;;;26.20;51.70;;;;;;4054184;29;20111;-46
2022/11/05 07:12:39;;;;;;;1.00;0.52;;;26.20;51.70;;;;;;4050904;29;20047;-44
2022/11/05 07:15:02;;;;;;;1.48;0.70;;;26.10;51.70;;;;;;4053730;29;20044;-46
2022/11/05 07:17:25;;;;;;;0.80;0.80;;;26.10;51.80;;;;;;4051273;29;20123;-44
2022/11/05 07:19:47;;;;;;;2.03;1.08;;;26.00;51.70;;;;;;4052057;29;20481;-44
2022/11/05 07:22:10;;;;;;;2.55;1.25;;;26.00;51.80;;;;;;4051443;29;20054;-45
2022/11/05 07:24:32;;;;;;;2.88;1.98;;;25.90;51.90;;;;;;4049061;29;20119;-45
2022/11/05 07:26:55;;;;;;;1.75;1.10;;;25.90;51.90;;;;;;4049859;29;20076;-44
2022/11/05 07:29:17;;;;;;;1.58;1.10;;;25.80;51.90;;;;;;4045169;29;20100;-44
2022/11/05 07:31:40;;;;;;;2.92;1.27;;;25.80;52.00;;;;;;4048156;29;20040;-43
2022/11/05 07:34:03;;;;;;;3.17;1.33;;;25.80;52.10;;;;;;4049610;29;20493;-45
2022/11/05 07:36:26;;;;;;;2.08;1.45;;;25.80;52.20;;;;;;4053262;29;20052;-45
2022/11/05 07:38:48;;;;;;;2.70;1.40;;;25.70;52.10;;;;;;4046377;29;20830;-46
2022/11/05 07:41:11;;;;;;;2.78;1.80;;;25.70;52.30;;;;;;4044396;29;20044;-44
2022/11/05 07:43:33;;;;;;;2.58;1.70;;;25.60;52.30;;;;;;4048953;29;20581;-44
2022/11/05 07:45:56;;;;;;;2.78;1.83;;;25.60;52.30;;;;;;4048959;29;20067;-44
2022/11/05 07:48:18;;;;;;;3.63;1.52;;;25.60;52.40;;;;;;4044535;29;20444;-46
2022/11/05 07:50:42;;;;;;;3.90;1.95;;;25.50;52.50;;;;;;4048015;29;20047;-43
2022/11/05 07:53:11;;;;;;;2.63;1.88;;;25.50;52.50;;;;;;4046696;29;20123;-43
2022/11/05 07:55:33;;;;;;;2.83;1.88;;;25.50;52.60;;;;;;4048151;29;20040;-44
2022/11/05 07:57:56;;;;;;;3.05;1.80;;;25.40;52.60;;;;;;4051812;29;20036;-45
2022/11/05 08:00:21;;;;;;;2.97;2.05;;;25.40;52.60;;;;;;4052358;29;20182;-47
2022/11/05 08:02:44;;;;;;;3.17;2.08;;;25.40;52.60;;;;;;4048426;29;20494;-45
2022/11/05 08:05:07;;;;;;;2.92;1.88;;;25.40;52.60;;;;;;4051865;29;20139;-49
2022/11/05 08:07:30;;;;;;;2.73;2.00;;;25.40;52.70;;;;;;4049435;29;20055;-45
2022/11/05 08:09:52;;;;;;;4.70;2.40;;;25.30;52.70;;;;;;4051538;29;20325;-45
2022/11/05 08:12:15;;;;;;;3.50;2.58;;;25.30;52.80;;;;;;4049479;29;20048;-45
2022/11/05 08:14:37;;;;;;;4.40;2.80;;;25.20;52.80;;;;;;4049776;29;20468;-51
2022/11/05 08:17:00;;;;;;;4.15;2.58;;;25.20;52.90;;;;;;4051360;29;20040;-44
2022/11/05 08:19:22;;;;;;;4.03;2.90;;;25.20;53.00;;;;;;4050641;29;20043;-44
2022/11/05 08:21:45;;;;;;;4.38;2.90;;;25.10;52.90;;;;;;4052515;29;20423;-44
2022/11/05 08:24:07;;;;;;;5.05;3.13;;;25.10;53.00;;;;;;4052498;29;20054;-45
2022/11/05 08:26:30;;;;;;;4.55;3.38;;;25.10;53.10;;;;;;4052240;29;20337;-45
2022/11/05 08:28:53;;;;;;;4.25;3.10;;;25.10;53.20;;;;;;4051673;29;20269;-44
2022/11/05 08:31:16;;;;;;;4.65;3.33;;;25.10;53.20;;;;;;4053669;29;20128;-45
2022/11/05 08:33:39;;;;;;;3.95;3.25;;;25.00;53.90;;;;;;4052354;29;20040;-44
2022/11/05 08:36:03;;;;;;;4.38;3.35;;;25.00;53.20;;;;;;4052574;29;20495;-45
2022/11/05 08:38:26;;;;;;;5.07;3.47;;;25.00;53.30;;;;;;4045916;29;20525;-45
2022/11/05 08:40:57;;;;;;;5.07;3.38;;;24.90;53.30;;;;;;4048629;29;20040;-44
2022/11/05 08:43:20;;;;;;;5.00;3.35;;;24.90;53.40;;;;;;4053705;29;20039;-46
2022/11/05 08:45:42;;;;;;;5.38;3.70;;;24.90;53.40;;;;;;4054102;29;20040;-45
2022/11/05 08:48:16;;;;;;;4.53;3.53;;;24.90;53.40;;;;;;4047561;29;20571;-44
2022/11/05 08:50:39;;;;;;;4.82;3.35;;;24.80;53.40;;;;;;4052496;29;20111;-44
2022/11/05 08:53:01;;;;;;;4.47;3.35;;;24.80;53.50;;;;;;4053468;29;20040;-44
2022/11/05 08:55:24;;;;;;;5.13;3.28;;;24.80;53.50;;;;;;4054188;29;20046;-44
2022/11/05 08:57:47;;;;;;;4.83;3.40;;;24.80;53.50;;;;;;4052898;29;20040;-44
2022/11/05 09:00:10;;;;;;;5.35;3.58;;;24.80;53.60;;;;;;4053042;29;20048;-44
2022/11/05 09:02:32;;;;;;;4.65;3.30;;;24.70;53.60;;;;;;4052461;29;20412;-44
2022/11/05 09:04:55;;;;;;;5.28;3.22;;;24.70;53.70;;;;;;4050213;29;20043;-44
2022/11/05 09:07:18;;;;;;;3.97;2.78;;;24.70;53.70;;;;;;4051674;29;20056;-44
2022/11/05 09:09:40;;;;;;;4.40;2.90;;;24.70;53.70;;;;;;4052352;29;20083;-47
2022/11/05 09:12:03;;;;;;;3.95;2.90;;;24.60;53.70;;;;;;4048030;29;20051;-44
2022/11/05 09:14:25;;;;;;;3.45;2.80;;;24.60;53.70;;;;;;4048783;29;20051;-43
2022/11/05 09:16:48;;;;;;;4.18;2.75;;;24.60;53.70;;;;;;4051302;29;20079;-44
2022/11/05 09:19:11;;;;;;;4.35;2.90;;;24.60;53.60;;;;;;4054137;29;20500;-46
2022/11/05 09:21:33;;;;;;;4.55;3.13;;;24.60;53.80;;;;;;4052448;29;20035;-44
2022/11/05 09:23:56;;;;;;;4.47;3.10;;;24.60;53.70;;;;;;4049460;29;20035;-45
2022/11/05 09:26:18;;;;;;;4.32;2.90;;;24.50;53.70;;;;;;4053799;29;20524;-43
2022/11/05 09:28:42;;;;;;;4.60;2.60;;;24.60;53.80;;;;;;4051546;29;20060;-44
2022/11/05 09:31:09;;;;;;;4.03;2.80;;;24.50;53.70;;;;;;4047729;29;20172;-44
2022/11/05 09:33:33;;;;;;;3.83;2.83;;;24.50;53.70;;;;;;4051483;29;20040;-43
2022/11/05 09:35:59;;;;;;;4.00;2.75;;;24.50;53.80;;;;;;4050322;29;20289;-44
2022/11/05 09:38:22;;;;;;;3.50;2.63;;;24.40;53.70;;;;;;4049893;29;20040;-44
2022/11/05 09:41:10;;;;;;;3.88;2.40;;;24.40;53.50;;;;;;4045666;29;20082;-43
2022/11/05 09:43:42;;;;;;;3.60;2.17;;;24.40;53.60;;;;;;4053721;29;20135;-43
2022/11/05 09:46:17;;;;;;;3.13;2.10;;;24.40;53.70;;;;;;4055433;29;20551;-44
2022/11/05 09:48:41;;;;;;;3.10;2.20;;;24.40;53.80;;;;;;4056680;29;20051;-45
2022/11/05 09:51:05;;;;;;;3.15;2.00;;;24.40;53.70;;;;;;4057607;29;20044;-43
2022/11/05 09:53:28;;;;;;;4.63;2.55;;;24.40;53.70;;;;;;4060059;29;20063;-44
2022/11/05 09:55:59;;;;;;;3.20;2.08;;;24.30;53.90;;;;;;4050006;29;20475;-43
2022/11/05 09:58:36;;;;;;;3.70;2.20;;;24.30;53.80;;;;;;4051523;29;20056;-46
2022/11/05 10:00:59;;;;;;;2.72;2.00;;;24.30;53.90;;;;;;4053236;29;20448;-45
2022/11/05 10:03:28;;;;;;;3.50;2.25;;;24.30;54.50;;;;;;4050990;29;20511;-45
2022/11/05 10:05:52;;;;;;;2.20;1.80;;;24.30;53.90;;;;;;4047872;29;20037;-45
2022/11/05 10:08:31;;;;;;;3.38;1.85;;;24.20;53.80;;;;;;4048506;29;20480;-45
2022/11/05 10:11:08;;;;;;;2.42;1.58;;;24.20;53.80;;;;;;4051509;29;20432;-44
2022/11/05 10:13:33;;;;;;;2.65;1.77;;;24.20;53.90;;;;;;4054343;29;20631;-49
2022/11/05 10:16:19;;;;;;;2.55;1.50;;;24.20;53.80;;;;;;4052012;29;20107;-45
2022/11/05 10:18:45;;;;;;;2.45;1.48;;;24.20;53.90;;;;;;4052008;29;20066;-44
2022/11/05 10:21:15;;;;;;;2.45;1.40;;;24.20;53.90;;;;;;4055701;29;20122;-44
2022/11/05 10:23:46;;;;;;;2.33;1.40;;;24.10;53.80;;;;;;4053481;29;20044;-47
2022/11/05 10:26:13;;;;;;;2.17;1.40;;;24.10;53.90;;;;;;4055032;29;20523;-47
2022/11/05 10:28:36;;;;;;;4.00;1.63;;;24.10;53.90;;;;;;4054253;29;20063;-44
2022/11/05 10:31:02;;;;;;;2.58;1.60;;;24.10;53.90;;;;;;4053376;29;20063;-46
2022/11/05 10:33:49;;;;;;;1.90;1.50;;;24.10;54.60;;;;;;4053968;29;20059;-44
2022/11/05 10:36:36;;;;;;;2.40;1.20;;;24.00;53.90;;;;;;4043931;29;20084;-44
2022/11/05 10:39:14;;;;;;;2.53;1.15;;;24.00;53.90;;;;;;4056232;29;20039;-44
2022/11/05 10:42:07;;;;;;;2.15;1.20;;;24.00;53.90;;;;;;4056637;29;20040;-46
2022/11/05 10:45:05;;;;;;;1.63;0.98;;;24.00;53.90;;;;;;4053664;29;20054;-44
2022/11/05 10:48:01;;;;;;;2.20;1.30;;;24.00;54.00;;;;;;4025565;29;20088;-45
2022/11/05 10:50:26;;;;;;;2.15;1.20;;;23.90;53.90;;;;;;4055156;29;20048;-46
2022/11/05 10:52:52;;;;;;;1.67;0.90;;;23.90;54.00;;;;;;4055609;29;20040;-44
2022/11/05 10:55:20;;;;;;;1.55;0.95;;;23.90;54.00;;;;;;4053338;29;20520;-45
2022/11/05 10:57:43;;;;;;;1.60;0.90;;;23.90;54.00;;;;;;4054881;29;20036;-50
2022/11/05 11:00:17;;;;;;;1.55;0.90;;;23.90;54.10;;;;;;4054507;29;20083;-45
2022/11/05 11:03:01;;;;;;;2.88;1.30;;;23.80;54.10;;;;;;4054515;29;20044;-43
2022/11/05 11:05:28;;;;;;;1.42;1.13;;;23.80;54.00;;;;;;4044927;29;20104;-44
2022/11/05 11:08:23;;;;;;;1.95;1.08;;;23.80;53.90;;;;;;4052034;29;20048;-44
2022/11/05 11:10:57;;;;;;;1.85;1.23;;;23.80;54.00;;;;;;4055836;29;20040;-43
2022/11/05 11:13:25;;;;;;;2.35;1.20;;;23.70;53.90;;;;;;4051030;29;20044;-45
2022/11/05 11:15:49;;;;;;;1.83;1.05;;;23.80;54.10;;;;;;4050822;29;20042;-45
2022/11/05 11:18:40;;;;;;;1.73;1.23;;;23.70;54.00;;;;;;4055536;29;20036;-44
2022/11/05 11:21:25;;;;;;;2.10;1.00;;;23.70;54.10;;;;;;4054166;29;20059;-44
2022/11/05 11:24:01;;;;;;;1.17;1.00;;;23.70;54.10;;;;;;4052224;29;20038;-43
2022/11/05 11:26:43;;;;;;;1.40;0.90;;;23.70;54.10;;;;;;4051738;29;20103;-43
2022/11/05 11:29:06;;;;;;;1.95;1.30;;;23.60;54.10;;;;;;4046639;29;20079;-45
2022/11/05 11:31:31;;;;;;;2.20;1.00;;;23.60;54.00;;;;;;4053196;29;20520;-44
2022/11/05 11:34:32;;;;;;;1.73;1.10;;;23.60;54.00;;;;;;4054303;29;20051;-45
2022/11/05 11:37:02;;;;;;;1.17;0.73;;;23.60;54.10;;;;;;4045795;29;20055;-44
2022/11/05 11:39:29;;;;;;;2.78;1.02;;;23.60;54.10;;;;;;4049374;29;20091;-44
2022/11/05 11:41:58;;;;;;;0.95;0.85;;;23.50;54.00;;;;;;4052167;29;20492;-44
2022/11/05 11:44:30;;;;;;;2.30;1.08;;;23.50;54.10;;;;;;4053278;29;20079;-44
2022/11/05 11:46:56;;;;;;;1.50;0.98;;;23.50;54.10;;;;;;4052770;29;20080;-44
2022/11/05 11:49:50;;;;;;;1.48;0.80;;;23.50;54.10;;;;;;4053361;29;20047;-44
2022/11/05 11:52:25;;;;;;;1.00;0.88;;;23.50;54.10;;;;;;4055528;29;20172;-44
2022/11/05 11:54:49;;;;;;;1.30;0.75;;;23.40;54.10;;;;;;4051192;29;20491;-44
2022/11/05 11:57:25;;;;;;;;;;;23.40;54.10;;;;;;4052546;29;20106;-48
2022/11/05 11:59:48;;;;;;;1.13;0.85;;;23.40;54.20;;;;;;4049557;29;20318;-43
2022/11/05 12:02:29;;;;;;;1.25;0.90;;;23.40;54.20;;;;;;4051870;29;20502;-44
2022/11/05 12:05:22;;;;;;;2.10;1.17;;;23.40;54.20;;;;;;4051084;29;20083;-44
2022/11/05 12:07:48;;;;;;;1.98;1.02;;;23.40;54.90;;;;;;4055169;29;20052;-47
2022/11/05 12:10:37;;;;;;;1.42;1.00;;;23.30;54.20;;;;;;4048283;29;20043;-46
2022/11/05 12:13:18;;;;;;;2.38;0.88;;;23.30;54.30;;;;;;4054095;29;20040;-44
2022/11/05 12:16:14;;;;;;;1.42;0.93;;;23.30;54.40;;;;;;4052655;29;20393;-46
2022/11/05 12:18:53;;;;;;;1.50;0.93;;;23.30;54.30;;;;;;4050760;29;20032;-44
2022/11/05 12:21:43;;;;;;;1.38;0.88;;;23.30;54.40;;;;;;4049636;29;20048;-44
2022/11/05 12:24:20;;;;;;;1.27;0.85;;;23.20;54.40;;;;;;4055562;29;20453;-44
2022/11/05 12:27:06;;;;;;;1.40;0.85;;;23.20;54.40;;;;;;4050276;29;20044;-43
2022/11/05 12:29:37;;;;;;;2.28;1.15;;;23.20;54.40;;;;;;4048614;29;20056;-43
2022/11/05 12:32:21;;;;;;;1.27;0.73;;;23.20;54.40;;;;;;4050707;29;20123;-46
2022/11/05 12:35:02;;;;;;;0.77;0.63;;;23.20;54.40;;;;;;4049165;28;20234;-43
2022/11/05 12:38:20;;;;;;;1.05;0.80;;;23.10;54.40;;;;;;4052343;29;20181;-43
2022/11/05 12:40:56;;;;;;;1.20;0.75;;;23.10;54.50;;;;;;4043276;29;20080;-44
2022/11/05 12:43:30;;;;;;;0.73;0.50;;;23.10;54.50;;;;;;4049593;29;20046;-43
2022/11/05 12:46:17;;;;;;;1.45;0.98;;;23.10;54.50;;;;;;4053208;29;20122;-44
2022/11/05 12:48:39;;;;;;;1.42;0.80;;;23.10;54.60;;;;;;4053551;29;20529;-44
2022/11/05 12:51:39;;;;;;;2.00;0.70;;;23.00;54.60;;;;;;4054684;28;20388;-44
2022/11/05 12:54:20;;;;;;;2.47;0.90;;;23.00;54.50;;;;;;4034529;29;20516;-45
2022/11/05 12:56:58;;;;;;;0.60;0.60;;;23.00;54.60;;;;;;4053719;29;20036;-44
2022/11/05 13:00:06;;;;;;;0.82;0.57;;;23.00;54.60;;;;;;4054349;29;20068;-43
2022/11/05 13:03:07;;;;;;;3.00;1.05;;;22.90;54.60;;;;;;4051723;29;20044;-42
2022/11/05 13:06:16;;;;;;;2.13;1.10;;;22.90;55.00;;;;;;4051882;29;20122;-42
2022/11/05 13:08:58;;;;;;;3.42;0.95;;;22.90;55.60;;;;;;4041417;29;20059;-43
2022/11/05 13:11:35;;;;;;;7.40;1.25;;;22.90;55.70;;;;;;4046661;29;20051;-42
2022/11/05 13:14:18;;;;;;;2.38;1.00;;;23.00;55.70;;;;;;4050121;29;20087;-42
2022/11/05 13:17:13;;;;;;;2.05;1.10;;;23.00;55.80;;;;;;4050782;28;20040;-42
2022/11/05 13:20:12;;;;;;;4.07;1.05;;;22.90;55.70;;;;;;4044255;29;20595;-42
2022/11/05 13:22:45;;;;;;;1.00;0.80;;;22.90;55.70;;;;;;4049273;29;20043;-42
2022/11/05 13:25:19;;;;;;;9.15;1.35;;;22.90;55.80;;;;;;4043882;29;20048;-43
2022/11/05 13:27:52;;;;;;;3.25;1.17;;;22.90;56.00;;;;;;4042623;29;20048;-43
2022/11/05 13:30:25;;;;;;;3.78;1.10;;;22.90;55.90;;;;;;4049276;29;20480;-46
2022/11/05 13:32:54;;;;;;;2.60;0.87;;;22.90;56.00;;;;;;4052398;29;20036;-42
2022/11/05 13:35:29;;;;;;;4.45;0.90;;;22.90;56.10;;;;;;4046160;29;20500;-41
2022/11/05 13:41:05;;;;;;;3.00;0.80;;;22.90;56.20;;;;;;4031052;29;20067;-42
2022/11/05 13:43:38;;;;;;;1.95;0.70;;;22.90;56.30;;;;;;4046458;29;20059;-44
2022/11/05 13:46:27;;;;;;;2.00;0.88;;;22.90;56.30;;;;;;4041247;29;20082;-42
2022/11/05 13:49:15;;;;;;;2.22;0.73;;;22.90;56.40;;;;;;4043274;29;20076;-41
2022/11/05 13:51:49;;;;;;;1.60;0.95;;;22.90;56.20;;;;;;4045682;29;20071;-42
2022/11/05 13:54:27;;;;;;;3.70;0.88;;;22.90;56.20;;;;;;4045147;29;20473;-43
2022/11/05 13:57:22;;;;;;;4.20;0.88;;;22.90;56.20;;;;;;4043641;29;20630;-42
2022/11/05 13:59:56;;;;;;;8.80;1.48;;;22.80;57.10;;;;;;4045396;29;20452;-41
2022/11/05 14:02:43;;;;;;;5.95;1.40;;;22.80;56.50;;;;;;4044925;29;20397;-43
2022/11/05 14:05:19;;;;;;;4.63;1.40;;;22.80;56.70;;;;;;4044719;29;20121;-42
2022/11/05 14:07:46;;;;;;;6.15;1.00;;;22.80;56.50;;;;;;4050145;29;20056;-42
2022/11/05 14:10:28;;;;;;;7.13;1.30;;;22.80;56.50;;;;;;4039200;29;20036;-43
2022/11/05 14:12:53;;;;;;;3.03;0.90;;;22.80;56.40;;;;;;4045365;29;20048;-41
2022/11/05 14:15:16;;;;;;;3.42;1.20;;;22.80;56.40;;;;;;4046141;29;20044;-42
2022/11/05 14:18:02;;;;;;;4.05;1.05;;;22.80;56.50;;;;;;4043784;29;20032;-42
2022/11/05 14:20:26;;;;;;;3.17;1.08;;;22.70;56.40;;;;;;4044890;29;20083;-43
2022/11/05 14:22:48;;;;;;;;;;;22.70;56.50;;;;;;4047940;29;20135;-43
2022/11/05 14:25:19;;;;;;;6.55;1.23;;;22.70;56.50;;;;;;4051407;29;20363;-43
2022/11/05 14:27:44;;;;;;;3.40;1.00;;;22.70;56.50;;;;;;4053619;29;20477;-43
2022/11/05 14:30:39;;;;;;;3.85;1.10;;;22.70;56.70;;;;;;4054911;29;20058;-43
2022/11/05 14:33:13;;;;;;;2.90;0.90;;;22.70;56.60;;;;;;4055994;29;20087;-43
2022/11/05 14:35:38;;;;;;;;;;;22.70;56.50;;;;;;4058347;29;20393;-43
2022/11/05 14:38:01;;;;;;;2.85;1.23;;;22.70;56.50;;;;;;4057877;29;19931;-43
2022/11/05 14:40:35;;;;;;;4.85;1.10;;;22.70;56.60;;;;;;4058943;29;20047;-42
2022/11/05 14:43:01;;;;;;;3.50;1.05;;;22.60;56.60;;;;;;4043653;29;20032;-44
2022/11/05 14:45:39;;;;;;;2.33;1.05;;;22.60;57.00;;;;;;4048631;29;20036;-42
2022/11/05 14:48:36;;;;;;;3.13;1.30;;;22.60;56.70;;;;;;4045602;29;20051;-43
2022/11/05 14:50:59;;;;;;;2.15;1.00;;;22.60;56.80;;;;;;4047813;29;20051;-45
2022/11/05 14:53:38;;;;;;;2.38;1.40;;;22.60;56.80;;;;;;4048196;29;20032;-42
2022/11/05 14:56:09;;;;;;;1.38;0.90;;;22.60;56.90;;;;;;4048836;29;20604;-42
2022/11/05 14:58:35;;;;;;;4.00;0.70;;;22.60;56.90;;;;;;4053719;29;20123;-42
2022/11/05 15:00:58;;;;;;;2.40;1.10;;;22.50;56.90;;;;;;4042518;29;20048;-43
2022/11/05 15:03:43;;;;;;;1.35;0.80;;;22.50;56.90;;;;;;4047438;29;20427;-43
2022/11/05 15:06:27;;;;;;;5.75;1.42;;;22.50;57.00;;;;;;4051275;29;20055;-43
2022/11/05 15:08:50;;;;;;;3.75;1.17;;;22.50;57.00;;;;;;4050551;29;20052;-42
2022/11/05 15:11:31;;;;;;;1.10;1.00;;;22.50;57.00;;;;;;4051343;29;20036;-42
2022/11/05 15:13:54;;;;;;;3.28;1.17;;;22.50;57.10;;;;;;4046940;29;20052;-42
2022/11/05 15:16:23;;;;;;;1.80;0.95;;;22.50;57.20;;;;;;4047026;29;20040;-44
2022/11/05 15:18:47;;;;;;;1.90;1.10;;;22.50;57.40;;;;;;4048926;29;20036;-40
2022/11/05 15:21:15;;;;;;;3.67;1.30;;;22.40;57.30;;;;;;4050554;29;20047;-41
2022/11/05 15:23:47;;;;;;;9.98;1.38;;;22.40;57.30;;;;;;4050336;29;20048;-40
2022/11/05 15:26:25;;;;;;;4.40;1.17;;;22.40;57.40;;;;;;4053966;29;20123;-41
2022/11/05 15:28:50;;;;;;;2.45;1.17;;;22.40;57.30;;;;;;4048196;29;20059;-41
2022/11/05 15:31:12;;;;;;;2.15;1.05;;;22.40;57.30;;;;;;4049452;29;20040;-43
2022/11/05 15:33:35;;;;;;;2.30;1.15;;;22.40;57.20;;;;;;4048439;29;20040;-41
2022/11/05 15:36:19;;;;;;;3.38;1.02;;;22.40;57.20;;;;;;4048145;29;20098;-41
2022/11/05 15:38:42;;;;;;;2.72;0.82;;;22.40;57.30;;;;;;4051490;29;20423;-40
2022/11/05 15:41:19;;;;;;;8.75;1.30;;;22.40;57.30;;;;;;4049102;29;20042;-42
2022/11/05 15:43:46;;;;;;;3.00;1.05;;;22.30;57.40;;;;;;4047561;29;20784;-42
2022/11/05 15:46:16;;;;;;;4.95;1.10;;;22.30;57.60;;;;;;4048514;29;20364;-41
2022/11/05 15:48:39;;;;;;;5.68;0.95;;;22.30;57.60;;;;;;4049322;29;20047;-41
2022/11/05 15:51:02;;;;;;;2.92;0.80;;;22.30;57.60;;;;;;4045295;29;20036;-42